TimeEST,TemperatureF,Dew PointF,Humidity,Sea Level PressureIn,VisibilityMPH,Wind Direction,Wind SpeedMPH,Gust SpeedMPH,PrecipitationIn,Events,Conditions,WindDirDegrees,DateUTC
12:51 AM,41.0,30.0,65,30.42,10.0,East,9.2,-,N/A,,Scattered Clouds,90,2013-11-04 05:51:00
1:51 AM,39.9,28.9,65,30.43,10.0,East,11.5,-,N/A,,Scattered Clouds,100,2013-11-04 06:51:00
2:51 AM,37.9,28.9,70,30.45,10.0,ESE,8.1,-,N/A,,Scattered Clouds,110,2013-11-04 07:51:00
3:51 AM,37.0,28.0,70,30.43,10.0,East,8.1,-,N/A,,Clear,100,2013-11-04 08:51:00
4:51 AM,37.0,28.0,70,30.44,10.0,East,9.2,-,N/A,,Clear,100,2013-11-04 09:51:00
5:51 AM,36.0,28.0,73,30.46,10.0,East,9.2,-,N/A,,Scattered Clouds,100,2013-11-04 10:51:00
6:51 AM,37.0,27.0,67,30.47,10.0,East,6.9,-,N/A,,Mostly Cloudy,100,2013-11-04 11:51:00
7:51 AM,37.0,27.0,67,30.47,10.0,ESE,6.9,-,N/A,,Mostly Cloudy,110,2013-11-04 12:51:00
8:51 AM,39.9,27.0,60,30.46,10.0,East,10.4,-,N/A,,Mostly Cloudy,100,2013-11-04 13:51:00
9:51 AM,44.1,28.0,53,30.45,10.0,East,12.7,-,N/A,,Overcast,100,2013-11-04 14:51:00
10:51 AM,46.0,28.0,50,30.45,10.0,ESE,9.2,-,N/A,,Overcast,110,2013-11-04 15:51:00
11:51 AM,50.0,28.0,43,30.42,10.0,ESE,12.7,18.4,N/A,,Overcast,120,2013-11-04 16:51:00
12:51 PM,53.1,28.9,40,30.38,10.0,SE,11.5,18.4,N/A,,Mostly Cloudy,130,2013-11-04 17:51:00
1:51 PM,53.1,30.9,43,30.36,10.0,SSE,9.2,-,N/A,,Mostly Cloudy,150,2013-11-04 18:51:00
2:51 PM,55.0,32.0,42,30.35,10.0,SE,8.1,-,N/A,,Mostly Cloudy,140,2013-11-04 19:51:00
3:51 PM,55.0,33.1,43,30.37,10.0,SSE,4.6,-,N/A,,Mostly Cloudy,160,2013-11-04 20:51:00
4:51 PM,54.0,34.0,47,30.37,10.0,ESE,5.8,-,N/A,,Overcast,120,2013-11-04 21:51:00
5:51 PM,53.1,35.1,50,30.37,10.0,East,4.6,-,N/A,,Overcast,100,2013-11-04 22:51:00
6:51 PM,51.1,36.0,56,30.38,10.0,ESE,3.5,-,N/A,,Overcast,110,2013-11-04 23:51:00
7:51 PM,52.0,35.1,53,30.37,10.0,SE,6.9,-,N/A,,Overcast,130,2013-11-05 00:51:00
8:51 PM,52.0,35.1,53,30.38,10.0,SSE,5.8,-,N/A,,Overcast,150,2013-11-05 01:51:00
9:51 PM,50.0,35.1,57,30.39,10.0,SE,6.9,-,N/A,,Overcast,130,2013-11-05 02:51:00
10:51 PM,51.1,36.0,56,30.37,10.0,SE,4.6,-,N/A,,Overcast,140,2013-11-05 03:51:00
11:51 PM,52.0,36.0,54,30.37,10.0,SSE,5.8,-,N/A,,Overcast,150,2013-11-05 04:51:00